Time;durP1;ratioP1;P1;durP2;ratioP2;P2;SDS_P1;SDS_P2;PMS_P1;PMS_P2;Temp;Humidity;BMP_temperature;BMP_pressure;BME280_temperature;BME280_humidity;BME280_pressure;Samples;Min_cycle;Max_cycle;Signal;HPM_P1;HPM_P2
2022/04/19 00:00:37;;;;;;;101.97;40.70;;;3.70;99.90;;;;;;5030050;28;20057;-53
2022/04/19 00:03:05;;;;;;;91.47;39.83;;;3.80;99.90;;;;;;5030320;28;20038;-51
2022/04/19 00:05:32;;;;;;;98.70;42.53;;;3.80;99.90;;;;;;5030110;28;20140;-52
2022/04/19 00:08:02;;;;;;;91.05;41.88;;;3.90;99.90;;;;;;5030032;28;20068;-51
2022/04/19 00:10:28;;;;;;;103.07;45.30;;;3.90;99.90;;;;;;5029916;28;20033;-54
2022/04/19 00:13:03;;;;;;;97.47;42.65;;;3.90;99.90;;;;;;5029910;28;20537;-53
2022/04/19 00:15:30;;;;;;;96.95;41.22;;;3.70;99.90;;;;;;5029827;28;20033;-51
2022/04/19 00:17:59;;;;;;;100.57;43.50;;;3.80;99.90;;;;;;5029610;28;20113;-51
2022/04/19 00:20:26;;;;;;;97.05;42.83;;;3.80;99.90;;;;;;5012101;28;20717;-53
2022/04/19 00:22:52;;;;;;;93.57;41.20;;;3.80;99.90;;;;;;5029929;28;20091;-53
2022/04/19 00:25:19;;;;;;;87.28;40.03;;;3.80;99.90;;;;;;5030137;28;20064;-51
2022/04/19 00:27:44;;;;;;;98.27;41.33;;;3.90;99.90;;;;;;5029801;28;20102;-53
2022/04/19 00:30:11;;;;;;;95.47;40.58;;;4.10;99.90;;;;;;5029652;28;20854;-51
2022/04/19 00:32:37;;;;;;;84.07;37.28;;;4.20;99.90;;;;;;5029632;28;20538;-53
2022/04/19 00:35:05;;;;;;;85.07;38.88;;;4.00;99.90;;;;;;5029306;28;20045;-50
2022/04/19 00:37:31;;;;;;;81.30;37.20;;;4.00;99.90;;;;;;5029669;28;20791;-53
2022/04/19 00:39:58;;;;;;;101.07;40.75;;;4.00;99.90;;;;;;5029464;28;20037;-52
2022/04/19 00:42:30;;;;;;;82.93;35.40;;;4.00;99.90;;;;;;5028553;28;20026;-52
2022/04/19 00:45:00;;;;;;;78.40;32.38;;;4.00;99.90;;;;;;5029429;28;20044;-52
2022/04/19 00:47:26;;;;;;;80.18;31.58;;;3.90;99.90;;;;;;5029707;28;20049;-52
2022/04/19 00:49:52;;;;;;;72.30;31.33;;;3.90;99.90;;;;;;5028859;28;20469;-52
2022/04/19 00:52:19;;;;;;;62.88;30.42;;;3.80;99.90;;;;;;5029037;28;20564;-51
2022/04/19 00:54:46;;;;;;;62.30;29.15;;;3.70;99.90;;;;;;5029068;28;20116;-53
2022/04/19 00:57:14;;;;;;;68.47;30.80;;;3.70;99.90;;;;;;5029375;28;20484;-52
2022/04/19 00:59:40;;;;;;;57.72;28.98;;;3.70;99.90;;;;;;5025884;28;20033;-51
2022/04/19 01:02:06;;;;;;;61.67;29.13;;;3.80;99.90;;;;;;5029045;28;20481;-53
2022/04/19 01:04:31;;;;;;;68.65;30.10;;;3.80;99.90;;;;;;5029064;28;20040;-52
2022/04/19 01:06:58;;;;;;;61.60;28.30;;;3.80;99.90;;;;;;5028926;28;20029;-52
2022/04/19 01:09:24;;;;;;;53.58;25.60;;;3.90;99.90;;;;;;5029134;28;20120;-52
2022/04/19 01:14:37;;;;;;;59.42;28.38;;;4.10;99.90;;;;;;5028956;28;20299;-51
2022/04/19 01:17:04;;;;;;;60.38;26.73;;;4.10;99.90;;;;;;5028850;28;20140;-52
2022/04/19 01:19:29;;;;;;;57.55;26.33;;;4.30;99.90;;;;;;5028710;28;20435;-53
2022/04/19 01:21:57;;;;;;;52.55;24.10;;;4.10;99.90;;;;;;5028582;28;20650;-53
2022/04/19 01:24:24;;;;;;;51.17;23.63;;;4.10;99.90;;;;;;5028840;28;20033;-53
2022/04/19 01:26:53;;;;;;;53.10;23.55;;;4.10;99.90;;;;;;5028923;28;20053;-53
2022/04/19 01:29:19;;;;;;;51.50;24.02;;;4.00;99.90;;;;;;5028499;28;20745;-52
2022/04/19 01:31:45;;;;;;;57.08;25.33;;;4.10;99.90;;;;;;5028811;28;20460;-53
2022/04/19 01:34:12;;;;;;;61.35;25.95;;;4.00;99.90;;;;;;5028355;28;20061;-53
2022/04/19 01:36:38;;;;;;;50.17;22.63;;;4.10;99.90;;;;;;4994553;28;20037;-53
2022/04/19 01:39:09;;;;;;;49.15;24.50;;;4.20;99.90;;;;;;5028300;28;20260;-52
2022/04/19 01:41:38;;;;;;;54.92;25.02;;;4.20;99.90;;;;;;5028842;28;20163;-52
2022/04/19 01:44:08;;;;;;;50.28;23.25;;;4.10;99.90;;;;;;5028520;28;20030;-53
2022/04/19 01:46:35;;;;;;;42.65;20.02;;;4.10;99.90;;;;;;5028794;28;20754;-52
2022/04/19 01:49:04;;;;;;;40.83;20.27;;;4.10;99.90;;;;;;5028384;28;20032;-52
2022/04/19 01:51:30;;;;;;;40.85;18.67;;;4.00;99.90;;;;;;5028333;28;20045;-52
2022/04/19 01:53:57;;;;;;;50.65;22.05;;;4.10;99.90;;;;;;5028107;28;20021;-52
2022/04/19 01:56:22;;;;;;;46.55;20.95;;;4.20;99.90;;;;;;5028333;28;20045;-52
2022/04/19 01:58:49;;;;;;;41.20;18.50;;;4.20;99.90;;;;;;5028369;28;20044;-52
2022/04/19 02:01:15;;;;;;;39.13;18.95;;;4.20;99.90;;;;;;5027941;28;20532;-52
2022/04/19 02:03:41;;;;;;;44.05;19.70;;;4.20;99.90;;;;;;5028355;28;20025;-52
2022/04/19 02:06:10;;;;;;;38.38;17.77;;;4.20;99.90;;;;;;5028392;28;20104;-52
2022/04/19 02:08:37;;;;;;;34.83;17.50;;;4.20;99.90;;;;;;5028101;28;20091;-51
2022/04/19 02:11:03;;;;;;;35.70;18.20;;;4.10;99.90;;;;;;5015945;28;20034;-51
2022/04/19 02:13:30;;;;;;;33.38;16.90;;;4.00;99.90;;;;;;5008074;28;20534;-53
2022/04/19 02:15:58;;;;;;;41.53;16.38;;;4.00;99.90;;;;;;5025139;28;20353;-52
2022/04/19 02:18:24;;;;;;;29.52;15.90;;;4.00;99.90;;;;;;5047992;28;20403;-52
2022/04/19 02:20:50;;;;;;;29.53;14.93;;;4.10;99.90;;;;;;5048519;28;20035;-52
2022/04/19 02:23:16;;;;;;;30.67;15.70;;;4.10;99.90;;;;;;5047790;28;20267;-52
2022/04/19 02:25:42;;;;;;;35.17;14.80;;;4.20;99.90;;;;;;5047959;28;20053;-53
2022/04/19 02:28:10;;;;;;;31.58;16.50;;;4.30;99.90;;;;;;5047901;28;20604;-52
2022/04/19 02:30:36;;;;;;;31.52;14.75;;;4.30;99.90;;;;;;5047958;28;20083;-52
2022/04/19 02:33:02;;;;;;;32.43;15.77;;;4.40;99.90;;;;;;5047967;28;20075;-52
2022/04/19 02:35:28;;;;;;;34.45;15.15;;;4.40;99.90;;;;;;5047879;28;20049;-52
2022/04/19 02:37:58;;;;;;;29.67;14.40;;;4.30;99.90;;;;;;5047620;28;20103;-52
2022/04/19 02:40:26;;;;;;;33.63;15.65;;;4.30;99.90;;;;;;5047902;28;20025;-52
2022/04/19 02:42:54;;;;;;;33.60;14.85;;;4.30;99.90;;;;;;5047557;28;20447;-52
2022/04/19 02:45:21;;;;;;;35.50;15.75;;;4.20;99.90;;;;;;5047919;28;20032;-52
2022/04/19 02:47:48;;;;;;;31.67;14.33;;;4.20;99.90;;;;;;5029594;28;20492;-52
2022/04/19 02:50:16;;;;;;;33.15;15.48;;;4.10;99.90;;;;;;5041049;28;20052;-52
2022/04/19 02:52:42;;;;;;;33.20;14.80;;;4.00;99.90;;;;;;5025447;28;20026;-52
2022/04/19 02:55:07;;;;;;;29.25;14.50;;;4.00;99.90;;;;;;5028493;28;20042;-52
2022/04/19 02:57:33;;;;;;;30.52;13.27;;;4.00;99.90;;;;;;5007300;28;20036;-52
2022/04/19 03:00:00;;;;;;;34.13;14.88;;;3.90;99.90;;;;;;5027937;28;20107;-54
2022/04/19 03:02:25;;;;;;;34.15;13.85;;;3.90;99.90;;;;;;5028725;28;20033;-52
2022/04/19 03:04:51;;;;;;;29.60;13.00;;;3.80;99.90;;;;;;5028488;28;20028;-52
2022/04/19 03:07:17;;;;;;;24.65;13.00;;;3.80;99.90;;;;;;5031596;28;20033;-52
2022/04/19 03:09:43;;;;;;;29.02;13.00;;;3.90;99.90;;;;;;5031410;28;20116;-52
2022/04/19 03:12:10;;;;;;;30.92;13.75;;;3.80;99.90;;;;;;5031739;28;20029;-52
2022/04/19 03:14:37;;;;;;;26.75;12.50;;;3.80;99.90;;;;;;5031160;28;20116;-52
2022/04/19 03:17:03;;;;;;;26.15;13.30;;;3.80;99.90;;;;;;5045206;28;20033;-52
2022/04/19 03:19:29;;;;;;;27.38;12.98;;;3.80;99.90;;;;;;5051095;28;20025;-52
2022/04/19 03:21:54;;;;;;;30.40;13.73;;;3.90;99.90;;;;;;5051200;28;20029;-52
2022/04/19 03:29:49;;;;;;;31.23;14.02;;;4.00;99.90;;;;;;5051352;28;20087;-52
2022/04/19 03:32:15;;;;;;;31.58;14.35;;;4.00;99.90;;;;;;5051326;28;20037;-52
2022/04/19 03:34:42;;;;;;;28.88;14.50;;;4.00;99.90;;;;;;5051012;28;20041;-52
2022/04/19 03:37:08;;;;;;;28.63;14.52;;;4.00;99.90;;;;;;5050732;28;20033;-52
2022/04/19 03:39:33;;;;;;;31.35;13.60;;;4.00;99.90;;;;;;5050928;28;20047;-52
2022/04/19 03:41:59;;;;;;;27.50;13.73;;;4.10;99.90;;;;;;5051122;28;20021;-52
2022/04/19 03:44:25;;;;;;;29.80;13.38;;;4.10;99.90;;;;;;5032917;28;20060;-52
2022/04/19 03:47:07;;;;;;;29.83;13.93;;;4.20;99.90;;;;;;5043887;28;20543;-53
2022/04/19 03:49:34;;;;;;;29.45;14.15;;;4.10;99.90;;;;;;5030576;28;20531;-52
2022/04/19 03:52:00;;;;;;;29.05;14.27;;;4.10;99.90;;;;;;5031188;28;20066;-52
2022/04/19 03:54:26;;;;;;;34.07;14.27;;;4.10;99.90;;;;;;5030869;28;20092;-51
2022/04/19 03:56:52;;;;;;;30.92;15.85;;;4.10;99.90;;;;;;5030853;28;20268;-51
2022/04/19 03:59:18;;;;;;;35.00;17.70;;;4.20;99.90;;;;;;5030222;28;20473;-51
2022/04/19 04:01:44;;;;;;;36.00;16.38;;;4.10;99.90;;;;;;5030521;28;20433;-53
2022/04/19 04:04:10;;;;;;;36.05;15.73;;;4.10;99.90;;;;;;5030419;28;20473;-53
2022/04/19 04:06:37;;;;;;;29.30;15.13;;;4.10;99.90;;;;;;5030558;28;20021;-51
2022/04/19 04:09:04;;;;;;;31.93;15.37;;;4.20;99.90;;;;;;5029917;28;20839;-52
2022/04/19 04:11:29;;;;;;;29.88;15.57;;;4.10;99.90;;;;;;5030675;28;20060;-52
2022/04/19 04:13:55;;;;;;;29.33;15.23;;;4.20;99.90;;;;;;5030314;28;20528;-52
2022/04/19 04:16:22;;;;;;;30.48;16.20;;;4.20;99.90;;;;;;5028937;28;20033;-52
2022/04/19 04:18:48;;;;;;;34.85;15.45;;;4.10;99.90;;;;;;5030098;28;20036;-51
2022/04/19 04:21:13;;;;;;;36.72;16.35;;;4.10;99.90;;;;;;5030179;28;20440;-52
2022/04/19 04:23:39;;;;;;;33.13;15.95;;;4.10;99.90;;;;;;5030291;28;20587;-51
2022/04/19 04:26:05;;;;;;;29.42;15.23;;;4.00;99.90;;;;;;5030476;28;20392;-51
2022/04/19 04:28:30;;;;;;;32.55;15.55;;;4.00;99.90;;;;;;5029779;28;20099;-52
2022/04/19 04:30:56;;;;;;;31.98;16.42;;;4.00;99.90;;;;;;5030264;28;20100;-52
2022/04/19 04:33:22;;;;;;;32.60;15.45;;;4.10;99.90;;;;;;5029673;28;20021;-52
2022/04/19 04:35:47;;;;;;;27.40;15.52;;;4.10;99.90;;;;;;5030121;28;20040;-52
2022/04/19 04:38:14;;;;;;;30.08;16.10;;;4.10;99.90;;;;;;5030033;28;20029;-52
2022/04/19 04:40:40;;;;;;;34.05;17.25;;;4.20;99.90;;;;;;5029681;28;20676;-52
2022/04/19 04:43:06;;;;;;;33.20;16.25;;;4.20;99.90;;;;;;5029652;28;20030;-52
2022/04/19 04:45:32;;;;;;;30.08;15.43;;;4.20;99.90;;;;;;5029680;28;20104;-53
2022/04/19 04:50:41;;;;;;;25.70;15.93;;;4.30;99.90;;;;;;5029804;28;20091;-53
2022/04/19 04:53:07;;;;;;;33.50;16.65;;;4.20;99.90;;;;;;5029599;28;20025;-53
2022/04/19 04:55:33;;;;;;;33.47;16.10;;;4.30;99.90;;;;;;5029562;28;20037;-53
2022/04/19 04:58:01;;;;;;;31.48;15.77;;;4.30;99.90;;;;;;5029456;28;20079;-53
2022/04/19 05:00:27;;;;;;;34.50;15.52;;;4.40;99.90;;;;;;5027597;28;20108;-52
2022/04/19 05:02:56;;;;;;;37.40;16.83;;;4.40;99.90;;;;;;5029657;28;20052;-51
2022/04/19 05:05:22;;;;;;;34.13;17.52;;;4.40;99.90;;;;;;5029646;28;20029;-51
2022/04/19 05:07:48;;;;;;;36.60;17.08;;;4.40;99.90;;;;;;5029495;28;20115;-50
2022/04/19 05:10:14;;;;;;;31.05;15.75;;;4.50;99.90;;;;;;5029184;28;20466;-51
2022/04/19 05:12:40;;;;;;;37.47;18.08;;;4.50;99.90;;;;;;5029085;28;20025;-51
2022/04/19 05:15:07;;;;;;;40.95;21.05;;;4.50;99.90;;;;;;5029095;28;20036;-52
2022/04/19 05:17:33;;;;;;;53.80;25.08;;;4.40;99.90;;;;;;5028964;28;20100;-52
2022/04/19 05:19:59;;;;;;;59.80;25.17;;;4.50;99.90;;;;;;5029285;28;20029;-53
2022/04/19 05:22:24;;;;;;;50.67;22.83;;;4.60;99.90;;;;;;5029210;28;20096;-52
2022/04/19 05:24:50;;;;;;;47.20;20.70;;;4.70;99.90;;;;;;5011113;28;20029;-52
2022/04/19 05:27:16;;;;;;;44.72;20.60;;;4.70;99.90;;;;;;5028825;28;20064;-52
2022/04/19 05:29:42;;;;;;;42.45;20.75;;;4.80;99.90;;;;;;5028890;28;20026;-52
2022/04/19 05:32:08;;;;;;;37.75;18.73;;;4.80;99.90;;;;;;5029315;28;20539;-52
2022/04/19 05:34:34;;;;;;;33.35;17.23;;;4.90;99.90;;;;;;5028948;28;20109;-52
2022/04/19 05:37:00;;;;;;;39.63;18.17;;;5.00;99.90;;;;;;5028958;28;20029;-52
2022/04/19 05:39:26;;;;;;;26.33;14.52;;;5.00;99.90;;;;;;5028679;28;20111;-53
2022/04/19 05:41:52;;;;;;;25.15;13.50;;;5.10;99.90;;;;;;5028797;28;20056;-53
2022/04/19 05:44:17;;;;;;;28.48;14.68;;;5.20;99.90;;;;;;5028973;28;20104;-51
2022/04/19 05:46:43;;;;;;;25.92;13.57;;;5.20;99.90;;;;;;5029062;28;20036;-52
2022/04/19 05:49:09;;;;;;;22.60;12.75;;;5.20;99.90;;;;;;5028770;28;20036;-51
2022/04/19 05:51:35;;;;;;;22.48;12.90;;;5.20;99.90;;;;;;5028722;28;20096;-52
2022/04/19 05:54:01;;;;;;;28.58;14.82;;;5.20;99.90;;;;;;5028824;28;20018;-52
2022/04/19 05:56:27;;;;;;;26.83;13.20;;;5.30;99.90;;;;;;5028732;28;20041;-52
2022/04/19 05:58:52;;;;;;;24.17;11.20;;;5.30;99.90;;;;;;5028300;28;20025;-53
2022/04/19 06:01:18;;;;;;;28.80;12.20;;;5.40;99.90;;;;;;5028496;28;20049;-51
2022/04/19 06:06:29;;;;;;;16.63;8.90;;;5.40;99.90;;;;;;5028831;28;20086;-52
2022/04/19 06:08:55;;;;;;;24.98;10.35;;;5.30;99.90;;;;;;5028728;28;20111;-52
2022/04/19 06:11:21;;;;;;;19.88;9.80;;;5.20;99.90;;;;;;5028685;28;20377;-52
2022/04/19 06:13:47;;;;;;;18.08;10.18;;;5.20;99.90;;;;;;5028692;28;20036;-51
2022/04/19 06:16:16;;;;;;;22.23;11.90;;;5.20;99.90;;;;;;5028320;28;20120;-52
2022/04/19 06:18:44;;;;;;;18.77;9.18;;;5.20;99.90;;;;;;5028225;28;20469;-52
2022/04/19 06:21:10;;;;;;;10.93;5.97;;;5.20;99.90;;;;;;5028568;28;20488;-51
2022/04/19 06:23:36;;;;;;;14.18;7.22;;;5.30;99.90;;;;;;5027991;28;20031;-52
2022/04/19 06:26:03;;;;;;;17.52;8.82;;;5.30;99.90;;;;;;5028580;28;20104;-52
2022/04/19 06:28:29;;;;;;;17.25;8.10;;;5.30;99.90;;;;;;5028022;28;20030;-51
2022/04/19 06:30:55;;;;;;;18.13;8.57;;;5.40;99.90;;;;;;5028596;28;20036;-51
2022/04/19 06:33:20;;;;;;;17.73;8.70;;;5.40;99.90;;;;;;5010524;28;20468;-53
2022/04/19 06:35:47;;;;;;;15.95;8.95;;;5.40;99.90;;;;;;5028348;28;20033;-51
2022/04/19 06:38:13;;;;;;;19.17;8.70;;;5.40;99.90;;;;;;5028000;28;20080;-51
2022/04/19 06:40:38;;;;;;;21.65;8.93;;;5.50;99.90;;;;;;5031611;28;20045;-52
2022/04/19 06:43:04;;;;;;;16.42;9.73;;;5.50;99.90;;;;;;5031889;28;20449;-52
2022/04/19 06:45:31;;;;;;;15.63;9.25;;;5.60;99.90;;;;;;5032176;28;20473;-52
2022/04/19 06:47:58;;;;;;;16.48;10.73;;;5.60;99.90;;;;;;5031519;28;20029;-52
2022/04/19 06:50:24;;;;;;;14.27;8.43;;;5.70;99.90;;;;;;5032099;28;20037;-51
2022/04/19 06:52:52;;;;;;;18.70;11.65;;;5.50;99.90;;;;;;5031963;28;20104;-51
2022/04/19 06:55:18;;;;;;;;;;;5.40;99.90;;;;;;5031925;28;20044;-53
2022/04/19 06:57:44;;;;;;;20.23;8.93;;;5.30;99.90;;;;;;5031705;28;19956;-52
2022/04/19 07:00:11;;;;;;;18.85;9.38;;;5.30;99.90;;;;;;5031546;28;20087;-51
2022/04/19 07:02:36;;;;;;;17.25;9.00;;;5.40;99.90;;;;;;5028865;28;20049;-52
2022/04/19 07:05:02;;;;;;;15.82;8.75;;;5.40;99.90;;;;;;5031568;28;20076;-53
2022/04/19 07:07:28;;;;;;;16.67;7.82;;;5.40;99.90;;;;;;5031644;28;20783;-53
2022/04/19 07:09:53;;;;;;;17.48;8.98;;;5.50;99.90;;;;;;5031682;28;20432;-52
2022/04/19 07:12:22;;;;;;;12.30;6.75;;;5.60;99.90;;;;;;5032014;28;20030;-52
2022/04/19 07:14:48;;;;;;;12.52;7.53;;;5.50;99.90;;;;;;5031169;28;20029;-51
2022/04/19 07:17:14;;;;;;;13.10;7.78;;;5.50;99.90;;;;;;5013196;28;20029;-53
2022/04/19 07:28:10;;;;;;;16.08;9.20;;;6.00;99.90;;;;;;5031595;28;20090;-51
2022/04/19 07:30:35;;;;;;;18.63;9.32;;;6.10;99.90;;;;;;5031370;28;20033;-52
2022/04/19 07:33:02;;;;;;;14.55;9.02;;;6.20;99.90;;;;;;5031246;28;20251;-52
2022/04/19 07:35:28;;;;;;;16.25;8.55;;;6.30;99.90;;;;;;5030774;28;20038;-52
2022/04/19 07:37:54;;;;;;;19.83;9.52;;;6.40;99.90;;;;;;5030734;28;20071;-53
2022/04/19 07:40:19;;;;;;;16.13;10.02;;;6.60;99.90;;;;;;5013173;28;20040;-51
2022/04/19 07:42:45;;;;;;;15.35;9.90;;;6.70;99.90;;;;;;5030843;28;20061;-52
2022/04/19 07:45:11;;;;;;;19.13;10.52;;;6.80;99.90;;;;;;5030836;28;20107;-52
2022/04/19 07:47:37;;;;;;;15.95;8.82;;;7.00;99.90;;;;;;5030536;28;20034;-52
2022/04/19 07:50:03;;;;;;;15.90;8.65;;;7.10;99.90;;;;;;5028912;28;20029;-52
2022/04/19 07:52:29;;;;;;;18.20;10.40;;;7.10;99.90;;;;;;5011080;28;20064;-51
2022/04/19 07:54:54;;;;;;;17.80;9.30;;;7.20;99.90;;;;;;5010953;28;20038;-53
2022/04/19 07:57:21;;;;;;;15.20;9.60;;;7.30;99.90;;;;;;5010603;28;20101;-53
2022/04/19 07:59:51;;;;;;;15.93;9.83;;;7.50;99.90;;;;;;5010679;28;20053;-52
2022/04/19 08:02:17;;;;;;;19.42;11.00;;;7.50;99.90;;;;;;5014150;28;20100;-52
2022/04/19 08:04:42;;;;;;;18.33;11.02;;;7.50;99.90;;;;;;5036468;28;20114;-53
2022/04/19 08:07:08;;;;;;;18.48;11.68;;;7.20;99.90;;;;;;5050220;28;20025;-52
2022/04/19 08:09:34;;;;;;;17.27;10.25;;;7.20;99.90;;;;;;5048846;28;20040;-51
2022/04/19 08:12:00;;;;;;;16.70;10.80;;;7.30;99.90;;;;;;5032818;28;20022;-52
2022/04/19 08:14:25;;;;;;;16.92;10.45;;;7.30;99.90;;;;;;5040661;28;20033;-51
2022/04/19 08:16:51;;;;;;;16.02;11.20;;;7.20;99.90;;;;;;5041095;28;20501;-52
2022/04/19 08:19:17;;;;;;;15.32;10.10;;;7.20;99.90;;;;;;5037261;28;20024;-52
2022/04/19 08:21:42;;;;;;;20.58;11.50;;;7.40;99.90;;;;;;5038921;28;20028;-53
2022/04/19 08:24:08;;;;;;;18.27;12.48;;;7.40;99.90;;;;;;5039484;28;20107;-52
2022/04/19 08:26:34;;;;;;;20.77;12.80;;;7.40;99.90;;;;;;5037419;28;20452;-52
2022/04/19 08:29:00;;;;;;;19.25;12.40;;;7.50;99.90;;;;;;5031743;28;20545;-50
2022/04/19 08:31:26;;;;;;;21.95;12.20;;;7.50;99.90;;;;;;5037038;28;20045;-52
2022/04/19 08:33:52;;;;;;;20.60;12.35;;;7.70;99.90;;;;;;5039646;28;20029;-51
2022/04/19 08:36:18;;;;;;;20.35;11.77;;;7.90;99.90;;;;;;5038854;28;20090;-50
2022/04/19 08:38:43;;;;;;;18.10;12.50;;;8.20;99.90;;;;;;5038277;28;20031;-51
2022/04/19 08:41:09;;;;;;;17.42;12.10;;;8.20;99.90;;;;;;5035129;28;20045;-50
2022/04/19 08:43:36;;;;;;;23.50;12.95;;;8.00;99.90;;;;;;5039456;28;20469;-51
2022/04/19 08:46:02;;;;;;;20.08;12.77;;;8.00;99.90;;;;;;5037527;28;20025;-52
2022/04/19 08:48:29;;;;;;;18.73;12.63;;;8.00;99.90;;;;;;5037845;28;20026;-51
2022/04/19 08:50:55;;;;;;;21.50;11.88;;;7.90;99.90;;;;;;5037499;28;20025;-51
2022/04/19 08:58:50;;;;;;;21.20;13.65;;;7.60;99.90;;;;;;5038586;28;20527;-53
2022/04/19 09:01:16;;;;;;;21.15;14.55;;;7.20;99.90;;;;;;5032576;28;20076;-52
2022/04/19 09:03:42;;;;;;;21.85;11.52;;;7.30;99.90;;;;;;5032765;28;20029;-52
2022/04/19 09:06:08;;;;;;;15.57;11.27;;;7.20;99.90;;;;;;5038266;28;20025;-52
2022/04/19 09:08:34;;;;;;;19.67;12.73;;;7.10;99.90;;;;;;5036898;28;20326;-52
2022/04/19 09:11:05;;;;;;;16.25;11.70;;;7.10;99.90;;;;;;5035274;28;20389;-51
2022/04/19 09:13:31;;;;;;;14.75;10.63;;;7.10;99.90;;;;;;5035928;28;20515;-51
2022/04/19 09:16:06;;;;;;;19.30;12.73;;;7.10;99.90;;;;;;5037547;28;20083;-52
2022/04/19 09:18:36;;;;;;;18.85;12.20;;;7.00;99.90;;;;;;5008880;28;20128;-52
2022/04/19 09:21:06;;;;;;;19.55;12.25;;;7.00;99.90;;;;;;5009084;28;20034;-51
2022/04/19 09:23:34;;;;;;;18.65;12.40;;;7.10;99.90;;;;;;5008936;28;20181;-52
2022/04/19 09:26:05;;;;;;;18.42;11.65;;;7.20;99.90;;;;;;5036538;28;20525;-52
2022/04/19 09:28:33;;;;;;;14.45;9.45;;;7.30;99.90;;;;;;5036251;28;20389;-52
2022/04/19 09:31:00;;;;;;;16.48;10.98;;;7.40;99.90;;;;;;5037605;28;20668;-52
2022/04/19 09:33:28;;;;;;;17.75;11.43;;;7.50;99.90;;;;;;5037787;28;20507;-53
2022/04/19 09:35:58;;;;;;;18.42;10.27;;;7.60;99.90;;;;;;5035941;28;20585;-52
2022/04/19 09:38:38;;;;;;;17.98;10.05;;;7.70;99.90;;;;;;5037359;28;20032;-51
2022/04/19 09:41:08;;;;;;;16.98;9.80;;;7.90;99.90;;;;;;5032697;28;20033;-51
2022/04/19 09:43:34;;;;;;;16.58;10.73;;;8.00;99.90;;;;;;5038274;28;20531;-51
2022/04/19 09:46:03;;;;;;;18.48;10.25;;;8.10;99.90;;;;;;5036682;28;20035;-51
2022/04/19 09:48:31;;;;;;;17.13;10.93;;;8.00;99.90;;;;;;5036902;28;20025;-51
2022/04/19 09:51:04;;;;;;;16.20;10.55;;;8.00;99.90;;;;;;5033452;28;20040;-51
2022/04/19 09:53:40;;;;;;;16.00;10.77;;;8.00;99.90;;;;;;5036534;28;20128;-51
2022/04/19 09:56:33;;;;;;;21.65;12.70;;;8.00;99.90;;;;;;5041986;28;20055;-51
2022/04/19 09:59:01;;;;;;;17.35;11.75;;;7.80;99.90;;;;;;5039079;28;20033;-52
2022/04/19 10:09:32;;;;;;;16.02;9.82;;;9.40;99.90;;;;;;5027888;28;20101;-53
2022/04/19 10:11:59;;;;;;;14.43;10.20;;;9.60;99.90;;;;;;5039022;28;20025;-51
2022/04/19 10:14:25;;;;;;;14.77;9.48;;;10.20;99.90;;;;;;5042804;28;20041;-51
2022/04/19 10:16:53;;;;;;;12.07;8.45;;;10.40;99.90;;;;;;5042286;28;20029;-51
2022/04/19 10:19:19;;;;;;;16.02;9.63;;;10.30;97.50;;;;;;5037561;28;20025;-51
2022/04/19 10:21:47;;;;;;;12.10;7.87;;;10.40;96.80;;;;;;5032100;28;20036;-52
2022/04/19 10:24:15;;;;;;;12.90;7.97;;;11.00;99.40;;;;;;5034872;28;20034;-50
2022/04/19 10:26:48;;;;;;;18.02;12.02;;;11.50;95.40;;;;;;5041619;28;20020;-51
2022/04/19 10:29:24;;;;;;;21.08;13.90;;;11.20;96.40;;;;;;5043295;28;20082;-51
2022/04/19 10:32:02;;;;;;;18.88;11.60;;;10.70;97.80;;;;;;5033008;28;20026;-50
2022/04/19 10:34:30;;;;;;;18.45;12.13;;;9.90;97.10;;;;;;5030330;28;20080;-53
2022/04/19 10:37:04;;;;;;;18.25;11.88;;;9.70;99.40;;;;;;5030022;28;20043;-52
2022/04/19 10:39:32;;;;;;;17.60;11.15;;;9.90;99.90;;;;;;5030565;28;20024;-51
2022/04/19 10:42:02;;;;;;;;;;;10.00;99.90;;;;;;5030684;28;20030;-52
2022/04/19 10:44:31;;;;;;;17.20;12.15;;;10.10;99.90;;;;;;5030043;28;19905;-52
2022/04/19 10:47:11;;;;;;;18.25;12.05;;;10.50;99.90;;;;;;5012575;28;20017;-52
2022/04/19 10:49:46;;;;;;;20.17;12.57;;;10.50;99.00;;;;;;5012024;28;20638;-51
2022/04/19 10:52:39;;;;;;;19.33;12.85;;;10.40;99.90;;;;;;5032199;28;20036;-52
2022/04/19 10:55:10;;;;;;;17.80;11.73;;;10.20;99.90;;;;;;5037253;28;20041;-52
2022/04/19 11:00:34;;;;;;;19.48;13.30;;;10.60;99.90;;;;;;5024406;28;20048;-52
2022/04/19 11:03:08;;;;;;;17.58;11.82;;;11.20;99.90;;;;;;5035139;28;20025;-51
2022/04/19 11:05:46;;;;;;;20.10;12.82;;;11.20;99.90;;;;;;5041820;28;20021;-51
2022/04/19 11:08:24;;;;;;;17.58;11.45;;;11.20;99.90;;;;;;5041873;28;20109;-52
2022/04/19 11:10:56;;;;;;;15.45;10.75;;;10.90;99.90;;;;;;5042114;28;20045;-52
2022/04/19 11:13:27;;;;;;;17.70;11.02;;;10.60;99.90;;;;;;5022573;28;20559;-51
2022/04/19 11:16:05;;;;;;;15.70;10.48;;;10.50;99.90;;;;;;5041026;28;20045;-52
2022/04/19 11:18:32;;;;;;;17.08;10.98;;;10.60;99.90;;;;;;5041626;28;20381;-52
2022/04/19 11:21:38;;;;;;;17.73;11.65;;;10.50;99.90;;;;;;5039696;28;20079;-51
2022/04/19 11:24:04;;;;;;;16.20;11.07;;;10.50;99.90;;;;;;5042405;28;20025;-52
2022/04/19 11:26:30;;;;;;;15.20;10.68;;;10.80;99.90;;;;;;5041619;28;20095;-52
2022/04/19 11:29:11;;;;;;;15.95;10.50;;;11.20;99.90;;;;;;5031220;28;20508;-51
2022/04/19 11:31:56;;;;;;;15.95;10.10;;;11.80;99.90;;;;;;5026111;28;20040;-52
2022/04/19 11:34:23;;;;;;;14.98;9.70;;;12.40;99.90;;;;;;5027907;28;20021;-51
2022/04/19 11:36:49;;;;;;;16.92;10.13;;;12.70;99.50;;;;;;5027817;28;20056;-51
2022/04/19 11:47:59;;;;;;;14.55;8.20;;;13.40;94.50;;;;;;5028092;28;20116;-52
2022/04/19 11:50:31;;;;;;;13.73;9.20;;;13.60;87.60;;;;;;5027747;28;20026;-52
2022/04/19 11:52:58;;;;;;;15.35;8.50;;;13.00;85.20;;;;;;5025914;28;20097;-53
2022/04/19 11:55:27;;;;;;;13.10;8.35;;;13.60;90.30;;;;;;5026977;28;20841;-52
2022/04/19 11:58:08;;;;;;;13.32;9.18;;;14.00;89.60;;;;;;5027422;28;20040;-53
2022/04/19 12:00:34;;;;;;;13.93;9.38;;;14.40;90.00;;;;;;5011096;28;20089;-51
2022/04/19 12:03:04;;;;;;;12.67;9.17;;;14.60;82.90;;;;;;5017078;28;20128;-52
2022/04/19 12:05:30;;;;;;;15.75;9.50;;;14.40;83.90;;;;;;5022952;28;20752;-51
2022/04/19 12:07:56;;;;;;;15.85;9.38;;;14.50;83.70;;;;;;5029166;28;20030;-53
2022/04/19 12:10:23;;;;;;;11.25;7.75;;;14.40;78.20;;;;;;5034293;28;20732;-51
2022/04/19 12:12:49;;;;;;;13.50;8.53;;;14.60;85.90;;;;;;5033061;28;20043;-51
2022/04/19 12:15:40;;;;;;;10.87;7.83;;;14.70;80.80;;;;;;5032021;28;20496;-51
2022/04/19 12:18:07;;;;;;;11.70;7.47;;;15.10;86.00;;;;;;5030830;28;20041;-53
2022/04/19 12:20:43;;;;;;;13.18;7.82;;;15.40;79.60;;;;;;5037960;28;20025;-52
2022/04/19 12:23:22;;;;;;;13.75;6.82;;;15.30;76.90;;;;;;5044858;28;20057;-53
2022/04/19 12:26:15;;;;;;;11.38;6.60;;;15.70;75.70;;;;;;5037160;28;20068;-52
2022/04/19 12:28:43;;;;;;;13.05;8.65;;;15.70;72.60;;;;;;5029412;28;20021;-51
2022/04/19 12:31:27;;;;;;;12.15;7.00;;;15.50;74.80;;;;;;5031108;28;20033;-51
2022/04/19 12:33:54;;;;;;;10.88;6.63;;;15.50;72.40;;;;;;5036006;28;20369;-53
2022/04/19 12:36:22;;;;;;;13.13;6.47;;;15.50;68.40;;;;;;5035795;28;20028;-51
2022/04/19 12:39:01;;;;;;;11.00;7.20;;;14.80;65.00;;;;;;5032313;28;20087;-53
2022/04/19 12:41:39;;;;;;;9.32;5.68;;;14.80;70.60;;;;;;5029551;28;20445;-50
2022/04/19 12:44:07;;;;;;;9.52;6.70;;;14.90;70.40;;;;;;5033409;28;20057;-51
2022/04/19 12:46:42;;;;;;;10.70;6.30;;;14.70;66.90;;;;;;5031070;28;20037;-51
2022/04/19 12:49:22;;;;;;;10.48;6.43;;;14.90;71.50;;;;;;5030313;28;20025;-51
2022/04/19 12:52:05;;;;;;;9.88;5.65;;;14.90;67.30;;;;;;5009450;28;20397;-51
2022/04/19 12:54:33;;;;;;;10.70;6.53;;;14.90;68.00;;;;;;5009067;28;20404;-51
2022/04/19 12:59:34;;;;;;;33.03;11.45;;;16.00;69.70;;;;;;5060309;23;20045;-52
2022/04/19 13:02:01;;;;;;;18.35;10.52;;;15.70;67.30;;;;;;5053590;28;20502;-51
2022/04/19 13:04:28;;;;;;;15.10;9.98;;;14.80;69.50;;;;;;5070812;28;20045;-53
2022/04/19 13:12:26;;;;;;;16.30;10.48;;;14.40;77.10;;;;;;5058108;28;20523;-51
2022/04/19 13:14:55;;;;;;;22.40;12.23;;;14.60;76.80;;;;;;5060148;28;20029;-50
2022/04/19 13:17:22;;;;;;;18.38;11.85;;;14.70;78.10;;;;;;5072287;28;20073;-50
2022/04/19 13:19:48;;;;;;;20.45;12.48;;;14.80;76.60;;;;;;5061788;28;20028;-51
2022/04/19 13:22:14;;;;;;;63.45;44.60;;;14.70;80.30;;;;;;5061437;28;20101;-52
2022/04/19 13:24:41;;;;;;;21.23;12.80;;;14.70;79.20;;;;;;5068957;28;20067;-53
2022/04/19 13:27:09;;;;;;;17.52;10.88;;;14.80;79.50;;;;;;5068757;28;20475;-51
2022/04/19 13:29:35;;;;;;;19.67;10.10;;;14.90;80.50;;;;;;5068961;28;20438;-52
2022/04/19 13:32:01;;;;;;;19.07;9.17;;;15.10;79.00;;;;;;5075463;28;20050;-52
2022/04/19 13:34:28;;;;;;;16.85;11.15;;;15.10;78.50;;;;;;5077663;28;20034;-53
2022/04/19 13:36:56;;;;;;;19.38;11.00;;;15.20;75.80;;;;;;5078489;28;20039;-51